createdAt,value
2019-03-28T00:02:05.275Z,19.70
2019-03-28T00:04:33.701Z,20.73
2019-03-28T00:07:02.172Z,20.50
2019-03-28T00:09:30.607Z,21.37
2019-03-28T00:11:59.070Z,20.83
2019-03-28T00:14:27.562Z,21.57
2019-03-28T00:16:55.945Z,21.63
2019-03-28T00:19:24.425Z,21.67
2019-03-28T00:21:52.877Z,21.97
2019-03-28T00:24:25.661Z,21.67
2019-03-28T00:26:54.123Z,21.03
2019-03-28T00:29:22.660Z,21.50
2019-03-28T00:31:51.093Z,20.77
2019-03-28T00:34:19.543Z,19.67
2019-03-28T00:36:47.972Z,20.00
2019-03-28T00:39:16.433Z,20.03
2019-03-28T00:41:45.188Z,21.33
2019-03-28T00:44:13.781Z,20.70
2019-03-28T00:46:42.202Z,22.03
2019-03-28T00:49:10.645Z,20.53
2019-03-28T00:51:39.093Z,21.17
2019-03-28T00:54:07.599Z,20.07
2019-03-28T00:56:46.612Z,20.70
2019-03-28T00:59:06.244Z,20.43
2019-03-28T01:01:34.685Z,20.27
2019-03-28T01:04:03.371Z,21.17
2019-03-28T01:06:32.208Z,20.90
2019-03-28T01:09:03.974Z,20.50
2019-03-28T01:11:30.906Z,20.57
2019-03-28T01:13:59.355Z,21.50
2019-03-28T01:16:27.912Z,20.43
2019-03-28T01:18:56.361Z,20.67
2019-03-28T01:21:24.816Z,20.93
2019-03-28T01:23:53.263Z,19.30
2019-03-28T01:26:21.746Z,21.57
2019-03-28T01:28:50.204Z,19.77
2019-03-28T01:31:18.645Z,20.50
2019-03-28T01:33:47.107Z,21.07
2019-03-28T01:36:15.545Z,21.03
2019-03-28T01:38:44.447Z,20.37
2019-03-28T01:41:13.045Z,18.77
2019-03-28T01:43:41.496Z,20.97
2019-03-28T01:46:09.937Z,19.53
2019-03-28T01:48:38.465Z,20.97
2019-03-28T01:51:06.951Z,19.47
2019-03-28T01:53:35.413Z,20.47
2019-03-28T01:56:03.872Z,20.20
2019-03-28T01:58:32.320Z,21.87
2019-03-28T02:01:02.871Z,20.50
2019-03-28T02:03:30.900Z,20.63
2019-03-28T02:05:59.363Z,20.17
2019-03-28T02:08:27.903Z,20.97
2019-03-28T02:10:56.377Z,19.87
2019-03-28T02:13:24.821Z,20.60
2019-03-28T02:15:53.280Z,20.27
2019-03-28T02:18:21.734Z,19.50
2019-03-28T02:20:50.176Z,19.63
2019-03-28T02:23:18.650Z,19.57
2019-03-28T02:25:47.085Z,19.53
2019-03-28T02:28:16.179Z,19.80
2019-03-28T02:30:44.696Z,20.30
2019-03-28T02:33:13.183Z,19.87
2019-03-28T02:35:41.634Z,20.30
2019-03-28T02:38:10.097Z,20.67
2019-03-28T02:40:38.553Z,18.73
2019-03-28T02:43:07.020Z,20.20
2019-03-28T02:45:35.498Z,18.80
2019-03-28T02:48:03.938Z,20.03
2019-03-28T02:50:32.388Z,19.77
2019-03-28T02:53:00.856Z,19.17
2019-03-28T02:55:29.322Z,18.70
2019-03-28T02:57:57.787Z,18.20
2019-03-28T03:00:26.312Z,18.47
2019-03-28T03:02:54.811Z,18.97
2019-03-28T03:05:23.248Z,18.97
2019-03-28T03:07:51.721Z,19.13
2019-03-28T03:10:20.157Z,19.47
2019-03-28T03:12:48.612Z,19.27
2019-03-28T03:15:17.069Z,18.50
2019-03-28T03:17:45.534Z,18.77
2019-03-28T03:20:13.957Z,18.63
2019-03-28T03:22:42.404Z,17.17
2019-03-28T03:25:11.548Z,18.40
2019-03-28T03:27:56.358Z,18.33
2019-03-28T03:30:10.099Z,17.03
2019-03-28T03:32:38.546Z,17.57
2019-03-28T03:35:07.137Z,17.63
2019-03-28T03:37:35.656Z,17.33
2019-03-28T03:40:06.659Z,17.10
2019-03-28T03:42:35.111Z,17.77
2019-03-28T03:45:06.982Z,15.80
2019-03-28T03:47:35.455Z,16.23
2019-03-28T03:50:08.008Z,16.63
2019-03-28T03:52:36.519Z,17.67
2019-03-28T03:55:06.647Z,18.80
2019-03-28T03:57:35.138Z,16.53
2019-03-28T04:00:06.085Z,17.17
2019-03-28T04:02:34.566Z,17.23
2019-03-28T04:05:03.042Z,16.57
2019-03-28T04:07:31.458Z,16.13
2019-03-28T04:09:59.919Z,16.30
2019-03-28T04:12:28.460Z,16.40
2019-03-28T04:14:56.927Z,15.43
2019-03-28T04:17:25.390Z,15.77
2019-03-28T04:19:53.844Z,16.47
2019-03-28T04:22:22.305Z,16.10
2019-03-28T04:24:50.818Z,14.97
2019-03-28T04:27:19.293Z,15.83
2019-03-28T04:29:47.777Z,15.70
2019-03-28T04:32:16.219Z,15.77
2019-03-28T04:34:44.648Z,16.40
2019-03-28T04:37:13.093Z,16.30
2019-03-28T04:39:42.415Z,16.17
2019-03-28T04:42:11.000Z,15.87
2019-03-28T04:44:39.446Z,16.27
2019-03-28T04:47:07.889Z,15.67
2019-03-28T04:49:36.373Z,16.10
2019-03-28T04:52:04.827Z,15.57
2019-03-28T04:54:33.336Z,16.07
2019-03-28T04:57:01.819Z,16.50
2019-03-28T04:59:30.265Z,15.57
2019-03-28T05:02:03.051Z,16.23
2019-03-28T05:04:28.810Z,16.40
2019-03-28T05:06:57.274Z,15.10
2019-03-28T05:09:25.729Z,15.80
2019-03-28T05:11:54.169Z,16.80
2019-03-28T05:14:22.645Z,14.30
2019-03-28T05:16:51.159Z,15.83
2019-03-28T05:19:19.676Z,17.20
2019-03-28T05:21:48.090Z,16.37
2019-03-28T05:24:16.522Z,15.37
2019-03-28T05:26:44.986Z,16.57
2019-03-28T05:29:13.447Z,16.67
2019-03-28T05:31:41.898Z,16.17
2019-03-28T05:34:10.346Z,16.97
2019-03-28T05:36:38.806Z,18.03
2019-03-28T05:39:07.229Z,16.80
2019-03-28T05:41:35.696Z,16.93
2019-03-28T05:44:04.163Z,16.87
2019-03-28T05:46:32.655Z,18.80
2019-03-28T05:49:01.095Z,17.30
2019-03-28T05:51:29.551Z,18.73
2019-03-28T05:53:58.051Z,17.90
2019-03-28T05:56:26.482Z,17.80
2019-03-28T05:58:54.944Z,17.63
2019-03-28T06:01:23.399Z,17.33
2019-03-28T06:03:51.871Z,17.60
2019-03-28T06:06:20.385Z,18.37
2019-03-28T06:08:48.840Z,18.73
2019-03-28T06:11:17.272Z,19.13
2019-03-28T06:13:45.721Z,20.20
2019-03-28T06:16:14.165Z,20.07
2019-03-28T06:18:42.623Z,18.90
2019-03-28T06:21:11.081Z,18.20
2019-03-28T06:23:39.636Z,17.27
2019-03-28T06:26:08.121Z,17.77
2019-03-28T06:28:36.638Z,18.53
2019-03-28T06:31:05.109Z,17.93
2019-03-28T06:33:34.433Z,19.13
2019-03-28T06:36:03.219Z,18.63
2019-03-28T06:38:31.686Z,19.53
2019-03-28T06:41:00.142Z,17.60
2019-03-28T06:43:28.614Z,17.93
2019-03-28T06:45:57.064Z,18.40
2019-03-28T06:48:25.504Z,18.53
2019-03-28T06:50:53.998Z,20.00
2019-03-28T06:53:22.457Z,18.50
2019-03-28T06:55:51.376Z,17.20
2019-03-28T06:58:20.033Z,18.17
2019-03-28T07:00:48.571Z,18.23
2019-03-28T07:03:17.035Z,18.53
2019-03-28T07:05:45.479Z,18.30
2019-03-28T07:08:13.929Z,17.63
2019-03-28T07:10:42.423Z,18.23
2019-03-28T07:13:10.863Z,18.23
2019-03-28T07:15:39.314Z,17.03
2019-03-28T07:18:07.766Z,17.37
2019-03-28T07:20:36.268Z,17.17
2019-03-28T07:23:04.661Z,16.57
2019-03-28T07:25:33.139Z,17.20
2019-03-28T07:28:01.588Z,17.07
2019-03-28T07:30:30.061Z,17.03
2019-03-28T07:32:58.519Z,15.97
2019-03-28T07:35:26.997Z,15.27
2019-03-28T07:37:55.466Z,15.73
2019-03-28T07:40:23.900Z,15.23
2019-03-28T07:42:52.378Z,16.30
2019-03-28T07:45:20.811Z,16.43
2019-03-28T07:47:49.348Z,14.70
2019-03-28T07:50:17.830Z,14.50
2019-03-28T07:52:46.269Z,14.40
2019-03-28T07:55:16.410Z,14.13
2019-03-28T07:57:44.817Z,12.87
2019-03-28T08:00:13.338Z,13.67
2019-03-28T08:02:41.794Z,13.40
2019-03-28T08:05:10.277Z,14.37
2019-03-28T08:07:44.983Z,15.07
2019-03-28T08:10:08.924Z,14.30
2019-03-28T08:12:37.447Z,13.97
2019-03-28T08:15:08.810Z,14.40
2019-03-28T08:17:37.276Z,15.40
2019-03-28T08:20:08.086Z,14.93
2019-03-28T08:22:36.588Z,15.20
2019-03-28T08:25:11.241Z,14.07
2019-03-28T08:27:37.462Z,14.07
2019-03-28T08:30:18.371Z,14.47
2019-03-28T08:32:40.099Z,13.83
2019-03-28T08:35:08.916Z,14.27
2019-03-28T08:37:37.523Z,12.70
2019-03-28T08:40:07.665Z,11.00
2019-03-28T08:42:36.113Z,11.93
2019-03-28T08:45:07.194Z,10.53
2019-03-28T08:47:35.793Z,10.77
2019-03-28T08:50:06.279Z,10.53
2019-03-28T08:52:34.743Z,10.30
2019-03-28T08:55:03.950Z,10.20
2019-03-28T08:57:32.419Z,9.80
2019-03-28T09:00:00.886Z,9.13
2019-03-28T09:02:29.401Z,10.47
2019-03-28T09:04:57.859Z,8.87
2019-03-28T09:07:26.307Z,8.50
2019-03-28T09:09:54.778Z,10.10
2019-03-28T09:12:23.218Z,11.23
2019-03-28T09:14:51.766Z,11.77
2019-03-28T09:17:20.198Z,12.10
2019-03-28T09:19:48.635Z,11.30
2019-03-28T09:22:17.086Z,12.50
2019-03-28T09:24:45.524Z,12.10
2019-03-28T09:27:13.976Z,11.30
2019-03-28T09:29:42.417Z,11.20
2019-03-28T09:32:10.881Z,10.70
2019-03-28T09:34:39.326Z,12.00
2019-03-28T09:37:07.872Z,12.63
2019-03-28T09:39:36.342Z,12.30
2019-03-28T09:42:04.793Z,11.80
2019-03-28T09:44:33.354Z,11.70
2019-03-28T09:47:01.807Z,11.30
2019-03-28T09:49:30.270Z,9.50
2019-03-28T09:51:58.721Z,9.03
2019-03-28T09:54:27.159Z,9.80
2019-03-28T09:56:55.626Z,10.97
2019-03-28T09:59:24.129Z,9.93
2019-03-28T10:01:52.627Z,8.60
2019-03-28T10:04:21.160Z,8.53
2019-03-28T10:06:49.734Z,9.60
2019-03-28T10:09:18.177Z,9.10
2019-03-28T10:11:46.641Z,9.17
2019-03-28T10:14:15.091Z,8.73
2019-03-28T10:16:43.554Z,7.80
2019-03-28T10:19:12.489Z,6.97
2019-03-28T10:21:41.049Z,7.13
2019-03-28T10:24:09.471Z,7.27
2019-03-28T10:26:37.934Z,6.90
2019-03-28T10:29:06.372Z,6.77
2019-03-28T10:31:34.921Z,6.77
2019-03-28T10:34:03.394Z,6.10
2019-03-28T10:36:31.894Z,6.10
2019-03-28T10:39:00.406Z,6.03
2019-03-28T10:41:29.093Z,6.10
2019-03-28T10:43:57.504Z,5.20
2019-03-28T10:46:25.929Z,5.23
2019-03-28T10:48:54.667Z,5.50
2019-03-28T10:51:23.150Z,4.80
2019-03-28T10:53:51.595Z,5.13
2019-03-28T10:56:22.450Z,4.33
2019-03-28T10:58:50.661Z,4.33
2019-03-28T11:01:36.003Z,4.23
2019-03-28T11:03:49.508Z,5.33
2019-03-28T11:06:17.969Z,4.40
2019-03-28T11:08:46.398Z,4.90
2019-03-28T11:11:14.853Z,4.33
2019-03-28T11:13:43.309Z,4.33
2019-03-28T11:16:14.870Z,4.90
2019-03-28T11:18:41.911Z,5.17
2019-03-28T11:21:10.361Z,4.87
2019-03-28T11:23:38.892Z,5.20
2019-03-28T11:26:07.405Z,5.13
2019-03-28T11:28:35.873Z,4.57
2019-03-28T11:31:04.320Z,5.03
2019-03-28T11:33:32.786Z,4.37
2019-03-28T11:36:01.229Z,4.60
2019-03-28T11:38:29.694Z,5.13
2019-03-28T11:40:58.174Z,4.33
2019-03-28T11:43:26.584Z,4.70
2019-03-28T11:45:55.139Z,4.93
2019-03-28T11:48:23.586Z,4.83
2019-03-28T11:50:52.055Z,5.33
2019-03-28T11:53:20.480Z,6.00
2019-03-28T11:55:49.101Z,6.17
2019-03-28T11:58:17.581Z,7.10
2019-03-28T12:00:46.137Z,5.60
2019-03-28T12:03:14.587Z,5.10
2019-03-28T12:05:43.863Z,4.73
2019-03-28T12:08:12.507Z,5.43
2019-03-28T12:10:41.013Z,5.63
2019-03-28T12:13:09.484Z,5.27
2019-03-28T12:15:37.940Z,5.83
2019-03-28T12:18:07.374Z,4.80
2019-03-28T12:20:35.836Z,4.50
2019-03-28T12:23:04.286Z,4.20
2019-03-28T12:25:32.715Z,4.17
2019-03-28T12:28:01.173Z,4.40
2019-03-28T12:30:29.661Z,4.90
2019-03-28T12:32:58.125Z,4.10
2019-03-28T12:35:26.655Z,4.23
2019-03-28T12:37:55.079Z,4.90
2019-03-28T12:40:23.548Z,4.90
2019-03-28T12:42:52.056Z,5.00
2019-03-28T12:45:20.522Z,5.53
2019-03-28T12:47:48.984Z,5.40
2019-03-28T12:50:17.438Z,4.50
2019-03-28T12:52:45.878Z,4.30
2019-03-28T12:55:14.399Z,5.40
2019-03-28T12:57:42.883Z,5.17
2019-03-28T13:00:12.167Z,4.53
2019-03-28T13:02:40.675Z,5.40
2019-03-28T13:05:09.217Z,5.87
2019-03-28T13:07:37.680Z,5.00
2019-03-28T13:10:07.780Z,5.10
2019-03-28T13:12:36.376Z,5.37
2019-03-28T13:15:05.434Z,5.63
2019-03-28T13:17:33.892Z,5.03
2019-03-28T13:20:02.351Z,4.60
2019-03-28T13:22:30.848Z,4.67
2019-03-28T13:24:59.341Z,4.00
2019-03-28T13:27:27.851Z,3.90
2019-03-28T13:29:56.287Z,3.87
2019-03-28T13:32:24.747Z,4.17
2019-03-28T13:34:53.140Z,4.50
2019-03-28T13:37:21.515Z,4.77
2019-03-28T13:39:49.925Z,4.90
2019-03-28T13:42:18.308Z,4.23
2019-03-28T13:44:46.727Z,4.27
2019-03-28T13:47:15.184Z,3.80
2019-03-28T13:49:43.632Z,4.37
2019-03-28T13:52:12.041Z,4.20
2019-03-28T13:54:40.524Z,3.90
2019-03-28T13:57:08.949Z,4.13
2019-03-28T13:59:37.382Z,3.93
2019-03-28T14:02:07.119Z,4.27
2019-03-28T14:04:35.620Z,4.97
2019-03-28T14:07:04.023Z,4.33
2019-03-28T14:09:32.400Z,4.33
2019-03-28T14:12:00.770Z,5.23
2019-03-28T14:14:29.253Z,5.27
2019-03-28T14:16:57.636Z,5.70
2019-03-28T14:19:26.050Z,5.77
2019-03-28T14:21:54.436Z,4.77
2019-03-28T14:24:22.839Z,5.80
2019-03-28T14:26:51.239Z,5.90
2019-03-28T14:29:19.640Z,5.30
2019-03-28T14:31:48.063Z,4.40
2019-03-28T14:34:16.433Z,4.67
2019-03-28T14:36:44.847Z,5.30
2019-03-28T14:39:13.248Z,5.23
2019-03-28T14:41:41.629Z,6.50
2019-03-28T14:44:10.042Z,5.87
2019-03-28T14:46:38.488Z,4.97
2019-03-28T14:49:06.964Z,6.20
2019-03-28T14:51:35.315Z,5.30
2019-03-28T14:54:03.695Z,5.77
2019-03-28T14:56:33.143Z,5.60
2019-03-28T14:59:01.567Z,6.20
2019-03-28T15:01:29.981Z,6.00
2019-03-28T15:03:58.424Z,6.77
2019-03-28T15:06:26.864Z,7.23
2019-03-28T15:08:55.291Z,6.80
2019-03-28T15:11:23.723Z,7.13
2019-03-28T15:13:52.155Z,6.47
2019-03-28T15:16:20.551Z,7.00
2019-03-28T15:18:49.012Z,6.37
2019-03-28T15:21:17.389Z,6.83
2019-03-28T15:23:45.771Z,5.77
2019-03-28T15:26:14.181Z,5.53
2019-03-28T15:28:42.592Z,6.13
2019-03-28T15:31:11.072Z,6.23
2019-03-28T15:33:40.160Z,5.97
2019-03-28T15:36:08.861Z,6.33
2019-03-28T15:38:37.273Z,5.20
2019-03-28T15:41:05.651Z,5.17
2019-03-28T15:43:34.063Z,5.77
2019-03-28T15:46:02.474Z,5.93
2019-03-28T15:48:30.889Z,6.43
2019-03-28T15:50:59.262Z,5.50
2019-03-28T15:53:27.646Z,5.17
2019-03-28T15:55:56.084Z,6.30
2019-03-28T15:58:24.504Z,5.70
2019-03-28T16:00:52.911Z,5.40
2019-03-28T16:03:21.313Z,5.80
2019-03-28T16:05:58.212Z,5.40
2019-03-28T16:08:19.817Z,5.97
2019-03-28T16:10:48.272Z,6.93
2019-03-28T16:13:16.758Z,7.20
2019-03-28T16:15:45.135Z,7.10
2019-03-28T16:18:13.802Z,6.60
2019-03-28T16:20:42.413Z,7.20
2019-03-28T16:23:10.819Z,7.27
2019-03-28T16:25:39.249Z,6.43
2019-03-28T16:28:07.658Z,6.63
2019-03-28T16:30:39.252Z,6.50
2019-03-28T16:33:07.670Z,6.20
2019-03-28T16:35:36.091Z,6.27
2019-03-28T16:38:04.552Z,5.80
2019-03-28T16:40:32.974Z,5.70
2019-03-28T16:43:01.427Z,6.23
2019-03-28T16:45:29.831Z,6.67
2019-03-28T16:47:58.244Z,7.37
2019-03-28T16:50:26.639Z,6.93
2019-03-28T16:52:55.079Z,6.33
2019-03-28T16:55:26.464Z,5.47
2019-03-28T16:57:53.950Z,6.40
2019-03-28T17:00:25.796Z,6.27
2019-03-28T17:02:54.220Z,5.70
2019-03-28T17:05:22.673Z,5.83
2019-03-28T17:07:51.631Z,5.50
2019-03-28T17:10:32.491Z,8.70
2019-03-28T17:13:00.907Z,6.53
2019-03-28T17:15:29.271Z,6.83
2019-03-28T17:17:57.672Z,7.40
2019-03-28T17:20:26.073Z,8.13
2019-03-28T17:22:54.500Z,7.57
2019-03-28T17:25:22.904Z,7.67
2019-03-28T17:27:51.327Z,11.43
2019-03-28T17:30:19.840Z,10.70
2019-03-28T17:32:48.250Z,11.17
2019-03-28T17:35:16.670Z,12.73
2019-03-28T17:37:45.085Z,11.13
2019-03-28T17:40:13.498Z,13.23
2019-03-28T17:42:42.151Z,10.00
2019-03-28T17:45:19.845Z,11.80
2019-03-28T17:47:48.191Z,9.47
2019-03-28T17:50:17.533Z,10.63
2019-03-28T17:52:45.995Z,11.00
2019-03-28T17:55:14.398Z,10.53
2019-03-28T17:57:42.819Z,10.93
2019-03-28T18:00:11.746Z,10.53
2019-03-28T18:02:40.165Z,10.20
2019-03-28T18:05:10.835Z,9.83
2019-03-28T18:07:38.614Z,10.60
2019-03-28T18:10:07.071Z,10.77
2019-03-28T18:12:35.482Z,11.93
2019-03-28T18:15:04.136Z,10.83
2019-03-28T18:17:32.574Z,11.83
2019-03-28T18:20:00.989Z,11.97
2019-03-28T18:22:29.449Z,12.57
2019-03-28T18:24:57.859Z,13.30
2019-03-28T18:27:26.260Z,13.10
2019-03-28T18:29:54.680Z,13.83
2019-03-28T18:32:23.066Z,13.90
2019-03-28T18:35:04.608Z,15.07
2019-03-28T18:37:21.592Z,13.93
2019-03-28T18:39:50.015Z,15.00
2019-03-28T18:42:18.411Z,14.60
2019-03-28T18:44:46.793Z,15.10
2019-03-28T18:47:15.215Z,15.63
2019-03-28T18:49:43.607Z,16.20
2019-03-28T18:52:12.005Z,15.20
2019-03-28T18:54:40.422Z,14.67
2019-03-28T18:57:08.812Z,15.17
2019-03-28T18:59:37.266Z,15.33
2019-03-28T19:02:05.680Z,15.30
2019-03-28T19:04:34.076Z,16.30
2019-03-28T19:07:02.494Z,15.40
2019-03-28T19:09:30.923Z,15.33
2019-03-28T19:11:59.365Z,14.77
2019-03-28T19:14:27.851Z,15.77
2019-03-28T19:16:56.283Z,16.37
2019-03-28T19:19:38.334Z,16.10
2019-03-28T19:21:55.955Z,16.47
2019-03-28T19:24:25.398Z,17.37
2019-03-28T19:26:53.791Z,17.00
2019-03-28T19:29:22.192Z,17.97
2019-03-28T19:31:50.588Z,18.03
2019-03-28T19:34:19.002Z,17.47
2019-03-28T19:36:48.354Z,17.77
2019-03-28T19:39:20.029Z,15.97
2019-03-28T19:41:48.446Z,18.10
2019-03-28T19:44:16.847Z,17.53
2019-03-28T19:46:46.197Z,17.57
2019-03-28T19:49:14.601Z,18.93
2019-03-28T19:51:43.003Z,17.90
2019-03-28T19:54:11.417Z,17.63
2019-03-28T19:56:39.806Z,18.23
2019-03-28T19:59:08.252Z,17.67
2019-03-28T20:01:36.700Z,18.50
2019-03-28T20:04:05.083Z,18.70
2019-03-28T20:06:33.520Z,18.47
2019-03-28T20:09:15.341Z,19.73
2019-03-28T20:11:31.994Z,19.23
2019-03-28T20:14:00.379Z,18.80
2019-03-28T20:16:30.743Z,18.70
2019-03-28T20:18:59.165Z,19.87
2019-03-28T20:21:27.599Z,19.73
2019-03-28T20:23:56.870Z,18.80
2019-03-28T20:26:25.290Z,19.63
2019-03-28T20:28:53.713Z,20.07
2019-03-28T20:31:22.096Z,20.03
2019-03-28T20:33:50.510Z,20.30
2019-03-28T20:36:37.068Z,21.10
2019-03-28T20:39:02.956Z,21.13
2019-03-28T20:41:19.043Z,20.37
2019-03-28T20:43:47.431Z,21.23
2019-03-28T20:46:15.853Z,20.40
2019-03-28T20:48:44.243Z,20.30
2019-03-28T20:51:12.653Z,20.07
2019-03-28T20:53:41.064Z,21.27
2019-03-28T20:56:09.544Z,20.93
2019-03-28T20:58:37.956Z,20.33
2019-03-28T21:01:06.386Z,23.20
2019-03-28T21:03:34.800Z,22.37
2019-03-28T21:06:14.586Z,21.23
2019-03-28T21:08:34.260Z,21.40
2019-03-28T21:11:02.672Z,21.40
2019-03-28T21:13:31.083Z,21.73
2019-03-28T21:15:59.449Z,20.10
2019-03-28T21:18:27.970Z,22.30
2019-03-28T21:20:56.441Z,22.63
2019-03-28T21:23:24.764Z,23.33
2019-03-28T21:25:53.148Z,23.40
2019-03-28T21:28:21.552Z,22.30
2019-03-28T21:30:49.955Z,21.83
2019-03-28T21:33:18.386Z,23.13
2019-03-28T21:35:46.796Z,24.60
2019-03-28T21:38:15.176Z,21.77
2019-03-28T21:40:43.578Z,23.23
2019-03-28T21:43:11.977Z,22.07
2019-03-28T21:45:40.861Z,22.73
2019-03-28T21:48:09.291Z,23.20
2019-03-28T21:50:37.819Z,24.87
2019-03-28T21:53:06.907Z,25.10
2019-03-28T21:55:35.474Z,23.67
2019-03-28T21:58:04.895Z,22.30
2019-03-28T22:00:33.480Z,23.30
2019-03-28T22:03:01.981Z,22.97
2019-03-28T22:05:30.891Z,24.23
2019-03-28T22:07:59.487Z,24.83
2019-03-28T22:10:27.947Z,24.67
2019-03-28T22:12:56.360Z,23.03
2019-03-28T22:15:24.806Z,23.67
2019-03-28T22:17:53.189Z,24.40
2019-03-28T22:20:21.588Z,22.87
2019-03-28T22:22:50.041Z,24.77
2019-03-28T22:25:18.414Z,27.13
2019-03-28T22:27:47.533Z,27.67
2019-03-28T22:30:16.877Z,26.70
2019-03-28T22:32:45.285Z,25.40
2019-03-28T22:35:13.667Z,25.03
2019-03-28T22:37:42.086Z,26.23
2019-03-28T22:40:12.054Z,26.00
2019-03-28T22:42:40.955Z,25.20
2019-03-28T22:45:09.700Z,25.13
2019-03-28T22:47:38.211Z,24.10
2019-03-28T22:50:06.706Z,23.93
2019-03-28T22:52:35.079Z,24.43
2019-03-28T22:55:05.878Z,24.03
2019-03-28T22:57:34.259Z,22.87
2019-03-28T23:00:04.214Z,25.47
2019-03-28T23:02:32.851Z,26.27
2019-03-28T23:05:01.244Z,24.57
2019-03-28T23:07:29.686Z,23.10
2019-03-28T23:09:58.068Z,23.77
2019-03-28T23:12:26.484Z,22.47
2019-03-28T23:14:56.701Z,23.83
2019-03-28T23:17:25.091Z,23.67
2019-03-28T23:19:53.551Z,22.93
2019-03-28T23:22:21.947Z,22.23
2019-03-28T23:24:50.352Z,21.50
2019-03-28T23:27:19.699Z,21.60
2019-03-28T23:29:48.094Z,22.87
2019-03-28T23:32:16.473Z,21.90
2019-03-28T23:34:44.863Z,23.20
2019-03-28T23:37:24.147Z,22.70
2019-03-28T23:39:43.332Z,22.60
2019-03-28T23:42:11.745Z,22.60
2019-03-28T23:44:40.140Z,23.17
2019-03-28T23:47:08.563Z,21.83
2019-03-28T23:49:38.767Z,22.03
2019-03-28T23:52:07.232Z,22.63
2019-03-28T23:54:35.635Z,22.83
2019-03-28T23:57:04.043Z,24.13
2019-03-28T23:59:32.442Z,25.37
